Time;durP1;ratioP1;P1;durP2;ratioP2;P2;SDS_P1;SDS_P2;PMS_P1;PMS_P2;Temp;Humidity;BMP_temperature;BMP_pressure;BME280_temperature;BME280_humidity;BME280_pressure;Samples;Min_cycle;Max_cycle;Signal;HPM_P1;HPM_P2
2021/09/22 00:02:17;;;;;;;4.30;1.40;;;;;;;;;;4809766;29;35396;-68
2021/09/22 00:04:44;;;;;;;7.45;1.52;;;;;;;;;;4817143;29;32460;-66
2021/09/22 00:07:10;;;;;;;7.00;2.25;;;;;;;;;;4816462;29;32821;-65
2021/09/22 00:09:36;;;;;;;3.63;1.20;;;;;;;;;;4818259;29;32444;-68
2021/09/22 00:12:04;;;;;;;3.55;1.55;;;;;;;;;;4810607;29;34157;-66
2021/09/22 00:14:30;;;;;;;4.13;2.08;;;;;;;;;;4756440;29;32613;-66
2021/09/22 00:16:59;;;;;;;7.53;1.52;;;;;;;;;;4816885;29;32968;-65
2021/09/22 00:19:26;;;;;;;7.10;1.10;;;;;;;;;;4818222;29;32599;-66
2021/09/22 00:21:52;;;;;;;4.90;1.60;;;;;;;;;;4802591;29;32514;-65
2021/09/22 00:24:18;;;;;;;5.78;1.70;;;;;;;;;;4818699;29;35012;-66
2021/09/22 00:26:45;;;;;;;3.78;1.45;;;;;;;;;;4817131;29;32606;-68
2021/09/22 00:29:12;;;;;;;4.65;1.73;;;;;;;;;;4816508;29;32749;-65
2021/09/22 00:31:38;;;;;;;4.80;2.17;;;;;;;;;;4817378;29;32379;-66
2021/09/22 00:34:06;;;;;;;4.80;2.40;;;;;;;;;;4818036;29;34662;-65
2021/09/22 00:36:33;;;;;;;6.88;2.08;;;;;;;;;;4817472;29;32494;-70
2021/09/22 00:39:00;;;;;;;5.93;1.50;;;;;;;;;;4817983;29;32458;-65
2021/09/22 00:41:26;;;;;;;7.38;2.60;;;;;;;;;;4818218;29;32519;-65
2021/09/22 00:43:53;;;;;;;6.60;1.50;;;;;;;;;;4775366;29;32462;-65
2021/09/22 00:46:20;;;;;;;5.45;1.48;;;;;;;;;;4799621;29;34218;-66
2021/09/22 00:48:46;;;;;;;6.10;1.52;;;;;;;;;;4804547;29;32468;-69
2021/09/22 00:51:14;;;;;;;6.20;1.63;;;;;;;;;;4817107;29;32669;-69
2021/09/22 00:53:41;;;;;;;6.15;1.50;;;;;;;;;;4816954;29;32718;-66
2021/09/22 00:56:08;;;;;;;6.20;1.70;;;;;;;;;;4817076;29;34138;-69
2021/09/22 00:58:35;;;;;;;10.40;2.83;;;;;;;;;;4816888;29;32527;-65
2021/09/22 01:01:03;;;;;;;7.63;2.00;;;;;;;;;;4815642;29;32708;-68
2021/09/22 01:03:30;;;;;;;6.35;2.38;;;;;;;;;;4815324;29;32489;-65
2021/09/22 01:06:01;;;;;;;8.85;1.83;;;;;;;;;;4817524;29;32304;-65
2021/09/22 01:08:31;;;;;;;9.50;2.80;;;;;;;;;;4816187;29;34647;-65
2021/09/22 01:10:58;;;;;;;6.35;2.67;;;;;;;;;;4817197;29;32359;-70
2021/09/22 01:13:25;;;;;;;7.65;1.80;;;;;;;;;;4816228;29;32405;-69
2021/09/22 01:15:52;;;;;;;;;;;;;;;;;;4818069;29;32455;-65
2021/09/22 01:18:22;;;;;;;8.85;2.63;;;;;;;;;;4797411;29;34507;-66
2021/09/22 01:20:50;;;;;;;6.63;1.90;;;;;;;;;;4834007;29;32680;-67
2021/09/22 01:23:19;;;;;;;9.32;2.92;;;;;;;;;;4828641;29;32633;-68
2021/09/22 01:25:48;;;;;;;7.20;2.47;;;;;;;;;;4834676;29;32520;-65
2021/09/22 01:28:19;;;;;;;8.27;2.90;;;;;;;;;;4834576;29;32378;-68
2021/09/22 01:30:46;;;;;;;7.70;2.47;;;;;;;;;;4829622;29;42304;-65
2021/09/22 01:33:14;;;;;;;;;;;;;;;;;;4821710;29;32528;-66
2021/09/22 01:35:43;;;;;;;12.10;3.22;;;;;;;;;;4817003;29;32771;-68
2021/09/22 01:38:15;;;;;;;8.25;2.90;;;;;;;;;;4793420;29;32343;-69
2021/09/22 01:40:56;;;;;;;8.38;2.38;;;;;;;;;;4779581;29;34802;-69
2021/09/22 01:43:22;;;;;;;9.77;3.22;;;;;;;;;;4778976;29;32468;-66
2021/09/22 01:45:49;;;;;;;5.70;2.70;;;;;;;;;;4779094;29;32470;-69
2021/09/22 01:48:16;;;;;;;9.68;2.75;;;;;;;;;;4779667;29;32602;-66
2021/09/22 01:50:42;;;;;;;7.45;3.15;;;;;;;;;;4778985;29;32517;-67
2021/09/22 01:53:09;;;;;;;4.97;2.65;;;;;;;;;;4780369;29;34626;-65
2021/09/22 01:55:36;;;;;;;5.68;2.45;;;;;;;;;;4779440;29;32441;-66
2021/09/22 01:58:03;;;;;;;6.80;2.17;;;;;;;;;;3907801;29;10027785;-67
2021/09/22 02:00:30;;;;;;;8.77;4.05;;;;;;;;;;4825035;29;32911;-68
2021/09/22 02:02:56;;;;;;;8.40;3.05;;;;;;;;;;4824612;29;32926;-66
2021/09/22 02:05:23;;;;;;;10.63;3.63;;;;;;;;;;4813067;29;32616;-65
2021/09/22 02:07:49;;;;;;;5.57;2.10;;;;;;;;;;4835358;29;32603;-66
2021/09/22 02:10:16;;;;;;;5.35;1.80;;;;;;;;;;4824417;29;34497;-65
2021/09/22 02:12:42;;;;;;;10.65;3.05;;;;;;;;;;4796858;29;32579;-69
2021/09/22 02:15:11;;;;;;;6.03;3.00;;;;;;;;;;4796417;29;32549;-65
2021/09/22 02:17:37;;;;;;;7.95;2.90;;;;;;;;;;4796846;29;32571;-65
2021/09/22 02:20:05;;;;;;;14.50;2.80;;;;;;;;;;4771512;29;34577;-64
2021/09/22 02:22:32;;;;;;;7.53;1.80;;;;;;;;;;4803841;29;32487;-66
2021/09/22 02:24:58;;;;;;;8.10;1.83;;;;;;;;;;4806884;29;32438;-66
2021/09/22 02:27:25;;;;;;;12.77;2.22;;;;;;;;;;4805519;29;32228;-65
2021/09/22 02:29:52;;;;;;;9.90;1.95;;;;;;;;;;4804146;29;32586;-69
2021/09/22 02:32:20;;;;;;;;;;;;;;;;;;4805597;29;34644;-66
2021/09/22 02:34:46;;;;;;;11.80;2.92;;;;;;;;;;4805283;29;33435;-67
2021/09/22 02:37:13;;;;;;;13.90;2.17;;;;;;;;;;4805154;29;32573;-66
2021/09/22 02:39:40;;;;;;;9.85;2.60;;;;;;;;;;4804433;29;32241;-69
2021/09/22 02:42:06;;;;;;;;;;;;;;;;;;4709693;29;34036;-66
2021/09/22 02:44:32;;;;;;;;;;;;;;;;;;4789261;29;32546;-67
2021/09/22 02:46:59;;;;;;;10.00;2.03;;;;;;;;;;4787281;29;32483;-66
2021/09/22 02:49:27;;;;;;;9.95;2.58;;;;;;;;;;4791007;29;32555;-68
2021/09/22 02:51:54;;;;;;;13.57;2.92;;;;;;;;;;4778237;29;32379;-66
2021/09/22 02:54:20;;;;;;;13.23;3.00;;;;;;;;;;4816484;29;34140;-68
2021/09/22 02:56:47;;;;;;;14.65;3.15;;;;;;;;;;4818250;29;32656;-70
2021/09/22 02:59:14;;;;;;;9.98;2.72;;;;;;;;;;4817380;29;32505;-64
2021/09/22 03:01:40;;;;;;;11.30;2.92;;;;;;;;;;4818197;29;32658;-66
2021/09/22 03:04:07;;;;;;;9.05;2.50;;;;;;;;;;4818211;29;35087;-65
2021/09/22 03:06:35;;;;;;;11.85;2.08;;;;;;;;;;4803165;29;32271;-62
2021/09/22 03:09:01;;;;;;;8.45;2.67;;;;;;;;;;4764311;29;32823;-67
2021/09/22 03:11:28;;;;;;;6.85;1.83;;;;;;;;;;4801796;29;32227;-67
2021/09/22 03:13:54;;;;;;;12.43;2.45;;;;;;;;;;4772478;29;32689;-65
2021/09/22 03:16:21;;;;;;;9.77;2.70;;;;;;;;;;4797916;29;34798;-68
2021/09/22 03:18:48;;;;;;;9.93;2.60;;;;;;;;;;4799078;29;32607;-66
2021/09/22 03:21:14;;;;;;;8.55;2.47;;;;;;;;;;4795223;29;32465;-67
2021/09/22 03:23:42;;;;;;;9.30;2.15;;;;;;;;;;4798813;29;32591;-66
2021/09/22 03:26:09;;;;;;;9.02;1.63;;;;;;;;;;4799268;29;34976;-66
2021/09/22 03:28:35;;;;;;;8.68;2.03;;;;;;;;;;4798145;29;32483;-68
2021/09/22 03:31:02;;;;;;;7.43;1.92;;;;;;;;;;4812062;29;32614;-69
2021/09/22 03:33:30;;;;;;;9.07;1.95;;;;;;;;;;4798766;29;32654;-67
2021/09/22 03:35:57;;;;;;;9.65;2.03;;;;;;;;;;4794563;29;32562;-68
2021/09/22 03:38:24;;;;;;;10.25;2.30;;;;;;;;;;4799099;29;33942;-67
2021/09/22 03:40:53;;;;;;;10.25;2.85;;;;;;;;;;4797640;29;32517;-67
2021/09/22 03:43:19;;;;;;;9.48;2.00;;;;;;;;;;4799876;29;32555;-67
2021/09/22 03:45:46;;;;;;;8.68;1.70;;;;;;;;;;4799664;29;32703;-67
2021/09/22 03:48:12;;;;;;;10.82;2.63;;;;;;;;;;4799405;29;36599;-68
2021/09/22 03:50:39;;;;;;;9.40;1.63;;;;;;;;;;4797921;29;32579;-70
2021/09/22 03:53:06;;;;;;;7.35;2.78;;;;;;;;;;4797256;29;32859;-68
2021/09/22 03:55:32;;;;;;;7.95;1.83;;;;;;;;;;4796927;29;32584;-68
2021/09/22 03:58:00;;;;;;;13.80;2.35;;;;;;;;;;4798280;29;33082;-67
2021/09/22 04:00:26;;;;;;;8.25;2.53;;;;;;;;;;4795565;29;34061;-70
2021/09/22 04:02:53;;;;;;;5.32;1.77;;;;;;;;;;4799029;29;32669;-67
2021/09/22 04:05:19;;;;;;;8.63;1.65;;;;;;;;;;4800040;29;32869;-68
2021/09/22 04:07:46;;;;;;;8.85;3.00;;;;;;;;;;4799502;29;32498;-69
2021/09/22 04:10:12;;;;;;;15.98;2.47;;;;;;;;;;4799521;29;34108;-68
2021/09/22 04:12:39;;;;;;;8.93;2.42;;;;;;;;;;4799617;29;32315;-69
2021/09/22 04:15:08;;;;;;;11.00;2.85;;;;;;;;;;4799822;29;32666;-67
2021/09/22 04:17:34;;;;;;;7.85;2.20;;;;;;;;;;4800828;29;32346;-67
2021/09/22 04:20:01;;;;;;;11.95;2.90;;;;;;;;;;4799278;29;32541;-67
2021/09/22 04:22:28;;;;;;;11.23;2.63;;;;;;;;;;4799730;29;34123;-67
2021/09/22 04:24:54;;;;;;;11.18;2.80;;;;;;;;;;4799678;29;32413;-66
2021/09/22 04:27:21;;;;;;;9.35;1.95;;;;;;;;;;4798459;29;32567;-66
2021/09/22 04:29:47;;;;;;;9.05;2.22;;;;;;;;;;4799923;29;32533;-68
2021/09/22 04:32:15;;;;;;;15.00;1.77;;;;;;;;;;4799241;29;35508;-68
2021/09/22 04:34:42;;;;;;;7.70;1.83;;;;;;;;;;4823059;29;32674;-72
2021/09/22 04:37:09;;;;;;;7.07;1.40;;;;;;;;;;4819146;29;32513;-69
2021/09/22 04:39:36;;;;;;;9.30;2.50;;;;;;;;;;4832595;29;32327;-67
2021/09/22 04:42:03;;;;;;;5.82;1.60;;;;;;;;;;4829567;29;33456;-67
2021/09/22 04:44:30;;;;;;;8.15;2.47;;;;;;;;;;4834068;29;35509;-67
2021/09/22 04:46:56;;;;;;;10.27;2.45;;;;;;;;;;4833366;29;32414;-67
2021/09/22 04:49:24;;;;;;;7.00;1.80;;;;;;;;;;4802726;29;32535;-67
2021/09/22 04:51:51;;;;;;;6.97;2.88;;;;;;;;;;4834550;29;32488;-66
2021/09/22 04:54:17;;;;;;;8.10;1.70;;;;;;;;;;4832010;29;34155;-67
2021/09/22 04:56:44;;;;;;;3.75;1.25;;;;;;;;;;4817862;29;32479;-66
2021/09/22 04:59:11;;;;;;;5.50;1.83;;;;;;;;;;4832417;29;32609;-67
2021/09/22 05:01:39;;;;;;;;;;;;;;;;;;4834360;29;33722;-67
2021/09/22 05:04:06;;;;;;;9.32;2.38;;;;;;;;;;4836359;29;32396;-67
2021/09/22 05:06:35;;;;;;;6.50;1.98;;;;;;;;;;4833858;29;34102;-68
2021/09/22 05:09:02;;;;;;;7.43;2.28;;;;;;;;;;4834634;29;33631;-69
2021/09/22 05:11:28;;;;;;;5.65;2.10;;;;;;;;;;4834374;29;32550;-67
2021/09/22 05:13:55;;;;;;;7.55;2.28;;;;;;;;;;4833551;29;32240;-68
2021/09/22 05:16:22;;;;;;;6.32;1.48;;;;;;;;;;4831917;29;34016;-66
2021/09/22 05:18:48;;;;;;;7.60;2.35;;;;;;;;;;4830532;29;32582;-67
2021/09/22 05:21:15;;;;;;;5.85;2.22;;;;;;;;;;4835160;29;32681;-66
2021/09/22 05:23:43;;;;;;;4.43;1.25;;;;;;;;;;4833103;29;33129;-67
2021/09/22 05:26:09;;;;;;;5.65;1.23;;;;;;;;;;4835919;29;32608;-68
2021/09/22 05:28:36;;;;;;;4.60;1.92;;;;;;;;;;4834807;29;34767;-68
2021/09/22 05:31:02;;;;;;;7.35;1.52;;;;;;;;;;4834106;29;32992;-71
2021/09/22 05:33:29;;;;;;;7.20;2.65;;;;;;;;;;4835612;29;32650;-69
2021/09/22 05:35:55;;;;;;;6.88;1.77;;;;;;;;;;4829542;29;32497;-69
2021/09/22 05:38:22;;;;;;;7.70;2.40;;;;;;;;;;4834341;29;34046;-69
2021/09/22 05:40:50;;;;;;;8.73;1.63;;;;;;;;;;4836588;29;32508;-69
2021/09/22 05:43:17;;;;;;;5.88;1.52;;;;;;;;;;4831793;29;32367;-67
2021/09/22 05:45:43;;;;;;;6.18;1.27;;;;;;;;;;4834505;29;32663;-69
2021/09/22 05:48:09;;;;;;;4.75;2.17;;;;;;;;;;4818359;29;32540;-71
2021/09/22 05:50:36;;;;;;;7.20;1.73;;;;;;;;;;4834640;29;34111;-68
2021/09/22 05:53:03;;;;;;;5.40;1.42;;;;;;;;;;4807147;29;33171;-68
2021/09/22 05:55:29;;;;;;;7.60;1.30;;;;;;;;;;4825767;29;32721;-71
2021/09/22 05:57:57;;;;;;;5.88;1.50;;;;;;;;;;4833642;29;32655;-68
2021/09/22 06:00:24;;;;;;;6.35;2.45;;;;;;;;;;4836280;29;33987;-68
2021/09/22 06:02:50;;;;;;;9.63;2.75;;;;;;;;;;4789102;29;32557;-70
2021/09/22 06:05:17;;;;;;;5.70;2.80;;;;;;;;;;4782522;29;32439;-68
2021/09/22 06:07:43;;;;;;;5.65;3.05;;;;;;;;;;4797695;29;33838;-69
2021/09/22 06:10:10;;;;;;;6.72;2.88;;;;;;;;;;4772358;29;32487;-69
2021/09/22 06:12:37;;;;;;;;;;;;;;;;;;4797391;29;34599;-68
2021/09/22 06:15:08;;;;;;;6.65;2.63;;;;;;;;;;4798172;29;32647;-67
2021/09/22 06:17:34;;;;;;;6.05;2.85;;;;;;;;;;4797654;29;32681;-66
2021/09/22 06:20:01;;;;;;;8.38;3.13;;;;;;;;;;4797277;29;32353;-66
2021/09/22 06:22:28;;;;;;;7.50;3.08;;;;;;;;;;4773394;29;34189;-68
2021/09/22 06:24:54;;;;;;;6.20;2.80;;;;;;;;;;4811848;29;32737;-68
2021/09/22 06:27:21;;;;;;;6.53;2.92;;;;;;;;;;4800033;29;32295;-67
2021/09/22 06:29:47;;;;;;;7.43;2.03;;;;;;;;;;4800676;29;32686;-67
2021/09/22 06:32:17;;;;;;;6.53;2.88;;;;;;;;;;4800569;29;32536;-67
2021/09/22 06:34:44;;;;;;;7.30;2.25;;;;;;;;;;4814501;29;34226;-66
2021/09/22 06:37:12;;;;;;;9.40;2.95;;;;;;;;;;4785192;29;32576;-68
2021/09/22 06:39:38;;;;;;;6.57;2.53;;;;;;;;;;4832853;29;32863;-67
2021/09/22 06:42:05;;;;;;;5.25;2.03;;;;;;;;;;4836331;29;32571;-68
2021/09/22 06:44:33;;;;;;;6.47;2.70;;;;;;;;;;4837642;29;34650;-67
2021/09/22 06:47:00;;;;;;;5.25;1.95;;;;;;;;;;4831668;29;32524;-70
2021/09/22 06:49:28;;;;;;;6.05;3.22;;;;;;;;;;4837210;29;32503;-67
2021/09/22 06:51:54;;;;;;;5.40;2.10;;;;;;;;;;4835776;29;32578;-67
2021/09/22 06:54:21;;;;;;;5.35;3.13;;;;;;;;;;4836986;29;32551;-69
2021/09/22 06:56:47;;;;;;;6.00;2.70;;;;;;;;;;4838288;29;34055;-67
2021/09/22 06:59:14;;;;;;;5.68;2.22;;;;;;;;;;4838384;29;32416;-67
2021/09/22 07:01:40;;;;;;;7.57;2.50;;;;;;;;;;4834852;29;33236;-69
2021/09/22 07:04:07;;;;;;;5.20;2.30;;;;;;;;;;4836560;29;32335;-69
2021/09/22 07:06:35;;;;;;;7.70;3.05;;;;;;;;;;4837566;29;33936;-67
2021/09/22 07:09:01;;;;;;;6.97;2.15;;;;;;;;;;4837212;29;32664;-68
2021/09/22 07:11:28;;;;;;;6.63;2.03;;;;;;;;;;4838149;29;32613;-66
2021/09/22 07:13:58;;;;;;;5.82;3.63;;;;;;;;;;4802729;29;32541;-66
2021/09/22 07:16:25;;;;;;;5.70;3.05;;;;;;;;;;4835037;29;32488;-68
2021/09/22 07:18:51;;;;;;;6.63;2.45;;;;;;;;;;4834988;29;32463;-67
2021/09/22 07:21:17;;;;;;;5.97;2.55;;;;;;;;;;4836361;29;32643;-69
2021/09/22 07:23:46;;;;;;;6.68;2.47;;;;;;;;;;4836972;29;32574;-68
2021/09/22 07:26:12;;;;;;;4.60;2.83;;;;;;;;;;4836102;29;33132;-67
2021/09/22 07:28:39;;;;;;;10.02;2.42;;;;;;;;;;4835965;29;34834;-67
2021/09/22 07:31:06;;;;;;;4.68;3.10;;;;;;;;;;4836530;29;32338;-66
2021/09/22 07:33:33;;;;;;;5.18;1.95;;;;;;;;;;4837006;29;32537;-68
2021/09/22 07:35:59;;;;;;;;;;;;;;;;;;4821146;29;32428;-68
2021/09/22 07:38:28;;;;;;;3.17;1.95;;;;;;;;;;4818045;29;33705;-67
2021/09/22 07:40:57;;;;;;;5.45;2.20;;;;;;;;;;4795192;29;34274;-68
2021/09/22 07:43:24;;;;;;;4.28;3.10;;;;;;;;;;4820521;29;33346;-68
2021/09/22 07:45:52;;;;;;;;;;;;;;;;;;4820696;29;32699;-67
2021/09/22 07:48:18;;;;;;;6.00;2.92;;;;;;;;;;4820828;29;33910;-70
2021/09/22 07:50:46;;;;;;;3.83;2.20;;;;;;;;;;4790039;29;35598;-68
2021/09/22 07:53:12;;;;;;;4.63;2.38;;;;;;;;;;4753468;29;33869;-68
2021/09/22 07:55:39;;;;;;;5.10;2.08;;;;;;;;;;4780003;29;32568;-68
2021/09/22 07:58:07;;;;;;;2.90;1.67;;;;;;;;;;4759833;29;32522;-67
2021/09/22 08:00:33;;;;;;;3.05;2.72;;;;;;;;;;4780800;29;32577;-66
2021/09/22 08:03:00;;;;;;;4.57;2.05;;;;;;;;;;4768277;29;32805;-69
2021/09/22 08:05:27;;;;;;;4.53;1.92;;;;;;;;;;4772600;29;32612;-68
2021/09/22 08:07:54;;;;;;;7.18;2.13;;;;;;;;;;4755577;29;34444;-66
2021/09/22 08:10:21;;;;;;;4.13;2.33;;;;;;;;;;4788273;29;32614;-68
2021/09/22 08:12:49;;;;;;;4.70;2.00;;;;;;;;;;4804326;29;35028;-69
2021/09/22 08:15:18;;;;;;;5.68;2.20;;;;;;;;;;4783364;29;33606;-67
2021/09/22 08:17:45;;;;;;;5.30;2.08;;;;;;;;;;4817219;29;32490;-66
2021/09/22 08:20:15;;;;;;;4.45;1.85;;;;;;;;;;4798380;29;32788;-67
2021/09/22 08:22:43;;;;;;;3.72;2.08;;;;;;;;;;4812507;29;32681;-66
2021/09/22 08:25:10;;;;;;;4.53;1.80;;;;;;;;;;4782780;29;32627;-67
2021/09/22 08:27:36;;;;;;;4.22;2.50;;;;;;;;;;4797692;29;32920;-66
2021/09/22 08:30:05;;;;;;;3.55;2.40;;;;;;;;;;4808440;29;32675;-67
2021/09/22 08:32:33;;;;;;;3.90;1.90;;;;;;;;;;4807730;29;32598;-67
2021/09/22 08:35:03;;;;;;;5.63;2.28;;;;;;;;;;4802490;29;34707;-67
2021/09/22 08:37:29;;;;;;;2.85;2.08;;;;;;;;;;4787633;29;33412;-66
2021/09/22 08:39:56;;;;;;;4.28;2.20;;;;;;;;;;4745138;29;32633;-68
2021/09/22 08:42:22;;;;;;;4.45;1.88;;;;;;;;;;4772491;29;32637;-66
2021/09/22 08:44:54;;;;;;;5.63;2.25;;;;;;;;;;4780600;29;32814;-66
2021/09/22 08:47:21;;;;;;;4.93;2.10;;;;;;;;;;4773022;29;32461;-70
2021/09/22 08:49:50;;;;;;;3.78;2.20;;;;;;;;;;4782039;29;32546;-66
2021/09/22 08:52:16;;;;;;;5.18;2.20;;;;;;;;;;4760115;29;32479;-67
2021/09/22 08:54:43;;;;;;;5.00;2.35;;;;;;;;;;4756940;29;32690;-68
2021/09/22 08:57:10;;;;;;;4.60;2.03;;;;;;;;;;4777505;29;34588;-67
2021/09/22 08:59:37;;;;;;;6.30;2.50;;;;;;;;;;4780254;29;32460;-70
2021/09/22 09:02:10;;;;;;;4.28;2.40;;;;;;;;;;4777686;29;32296;-67
2021/09/22 09:04:38;;;;;;;4.13;2.33;;;;;;;;;;4737648;29;33176;-66
2021/09/22 09:07:09;;;;;;;8.10;2.35;;;;;;;;;;4780326;29;32502;-67
2021/09/22 09:09:38;;;;;;;6.13;2.50;;;;;;;;;;4780861;29;32523;-67
2021/09/22 09:12:16;;;;;;;7.28;2.30;;;;;;;;;;4747745;29;34369;-69
2021/09/22 09:14:50;;;;;;;8.90;2.88;;;;;;;;;;4784840;29;33132;-66
2021/09/22 09:17:20;;;;;;;5.22;3.40;;;;;;;;;;4765857;29;32936;-67
2021/09/22 09:19:47;;;;;;;7.15;3.70;;;;;;;;;;4774682;29;34684;-65
2021/09/22 09:22:15;;;;;;;;;;;;;;;;;;4800297;29;32626;-66
2021/09/22 09:24:44;;;;;;;5.95;3.63;;;;;;;;;;4831737;29;32556;-66
2021/09/22 09:27:31;;;;;;;5.30;2.58;;;;;;;;;;4809799;29;32891;-67
2021/09/22 09:29:59;;;;;;;7.45;3.20;;;;;;;;;;4830440;29;35629;-68
2021/09/22 09:32:31;;;;;;;6.18;3.65;;;;;;;;;;4811458;29;33930;-67
2021/09/22 09:35:05;;;;;;;4.72;2.58;;;;;;;;;;4832431;29;32510;-69
2021/09/22 09:37:36;;;;;;;4.20;2.63;;;;;;;;;;4821750;29;32694;-69
2021/09/22 09:40:25;;;;;;;6.70;3.25;;;;;;;;;;4809842;29;32759;-67
2021/09/22 09:42:54;;;;;;;3.65;2.10;;;;;;;;;;4767292;29;34063;-67
2021/09/22 09:45:23;;;;;;;4.50;2.75;;;;;;;;;;4780721;29;34010;-66
2021/09/22 09:48:06;;;;;;;3.20;2.08;;;;;;;;;;4765286;29;33711;-66
2021/09/22 09:50:40;;;;;;;4.07;2.15;;;;;;;;;;4753091;29;32541;-67
2021/09/22 09:53:09;;;;;;;7.15;2.10;;;;;;;;;;4780496;29;34866;-67
2021/09/22 09:55:39;;;;;;;5.10;2.67;;;;;;;;;;4781137;29;32911;-70
2021/09/22 09:58:06;;;;;;;2.58;1.63;;;;;;;;;;4802915;29;32522;-68
2021/09/22 10:00:47;;;;;;;2.50;1.75;;;;;;;;;;4799372;29;32508;-67
2021/09/22 10:03:18;;;;;;;2.33;1.80;;;;;;;;;;4798469;29;32459;-66
2021/09/22 10:05:45;;;;;;;2.80;1.55;;;;;;;;;;4804975;29;35153;-69
2021/09/22 10:08:15;;;;;;;1.75;1.52;;;;;;;;;;4805239;29;32583;-68
2021/09/22 10:10:43;;;;;;;1.90;1.60;;;;;;;;;;4807284;29;32656;-67
2021/09/22 10:13:10;;;;;;;2.92;1.30;;;;;;;;;;4805991;29;32370;-68
2021/09/22 10:15:39;;;;;;;2.30;2.10;;;;;;;;;;4807773;29;34213;-68
2021/09/22 10:18:06;;;;;;;2.78;1.42;;;;;;;;;;4786154;29;34163;-70
2021/09/22 10:20:33;;;;;;;3.38;2.92;;;;;;;;;;4792001;29;34115;-67
2021/09/22 10:22:59;;;;;;;2.65;2.45;;;;;;;;;;4805757;29;32510;-67
2021/09/22 10:25:28;;;;;;;2.00;1.60;;;;;;;;;;4806285;29;32510;-67
2021/09/22 10:27:54;;;;;;;4.57;1.40;;;;;;;;;;4806256;29;34880;-66
2021/09/22 10:30:34;;;;;;;3.10;2.45;;;;;;;;;;4797109;29;34325;-68
2021/09/22 10:33:01;;;;;;;2.67;2.35;;;;;;;;;;4794477;29;32380;-68
2021/09/22 10:35:36;;;;;;;4.43;2.53;;;;;;;;;;4804785;29;32181;-67
2021/09/22 10:38:50;;;;;;;2.83;1.40;;;;;;;;;;4804143;29;34176;-65
2021/09/22 10:41:32;;;;;;;2.75;1.55;;;;;;;;;;4813816;29;32746;-68
2021/09/22 10:43:58;;;;;;;3.33;2.63;;;;;;;;;;4822550;29;33533;-73
2021/09/22 10:46:30;;;;;;;5.15;1.70;;;;;;;;;;4833871;29;32762;-69
2021/09/22 10:49:14;;;;;;;2.95;2.22;;;;;;;;;;4805058;29;32392;-72
2021/09/22 10:51:47;;;;;;;3.60;2.40;;;;;;;;;;4820343;29;35317;-68
2021/09/22 10:54:17;;;;;;;3.60;1.70;;;;;;;;;;4822784;29;32633;-67
2021/09/22 10:56:54;;;;;;;3.33;2.40;;;;;;;;;;4804001;29;34483;-67
2021/09/22 10:59:31;;;;;;;3.80;1.90;;;;;;;;;;4834698;29;32447;-66
2021/09/22 11:01:59;;;;;;;3.33;2.97;;;;;;;;;;4809513;29;34496;-68
2021/09/22 11:04:25;;;;;;;4.35;2.97;;;;;;;;;;4833532;29;32688;-67
2021/09/22 11:06:58;;;;;;;2.35;1.80;;;;;;;;;;4833999;29;32660;-66
2021/09/22 11:09:35;;;;;;;2.15;1.85;;;;;;;;;;4832192;29;32576;-68
2021/09/22 11:12:10;;;;;;;3.25;2.00;;;;;;;;;;4836131;29;32398;-67
2021/09/22 11:14:40;;;;;;;3.63;2.67;;;;;;;;;;4826765;29;34755;-66
2021/09/22 11:17:13;;;;;;;5.50;2.40;;;;;;;;;;4828266;29;34630;-66
2021/09/22 11:19:42;;;;;;;2.60;2.40;;;;;;;;;;4835101;29;32800;-68
2021/09/22 11:22:11;;;;;;;4.45;2.97;;;;;;;;;;4826217;29;32412;-66
2021/09/22 11:24:41;;;;;;;4.40;2.38;;;;;;;;;;4835974;29;34507;-66
2021/09/22 11:27:14;;;;;;;3.63;2.30;;;;;;;;;;4834854;29;32734;-67
2021/09/22 11:29:46;;;;;;;3.10;2.70;;;;;;;;;;4828718;29;32910;-66
2021/09/22 11:32:31;;;;;;;3.35;1.90;;;;;;;;;;4805860;29;32579;-65
2021/09/22 11:35:01;;;;;;;2.67;2.20;;;;;;;;;;4832921;29;32389;-67
2021/09/22 11:37:34;;;;;;;4.05;3.30;;;;;;;;;;4835499;29;35445;-66
2021/09/22 11:40:12;;;;;;;3.08;2.03;;;;;;;;;;4816440;29;33388;-66
2021/09/22 11:42:54;;;;;;;4.47;1.98;;;;;;;;;;4771363;29;32287;-68
2021/09/22 11:45:21;;;;;;;5.90;2.17;;;;;;;;;;4761477;29;32670;-68
2021/09/22 11:47:48;;;;;;;3.65;2.03;;;;;;;;;;4763774;29;35515;-70
2021/09/22 11:50:25;;;;;;;4.60;2.35;;;;;;;;;;4749982;29;32819;-69
2021/09/22 11:52:51;;;;;;;3.75;2.28;;;;;;;;;;4762589;29;32577;-66
2021/09/22 11:55:22;;;;;;;3.50;2.25;;;;;;;;;;4764191;29;32584;-66
2021/09/22 11:57:53;;;;;;;7.53;2.38;;;;;;;;;;4764050;29;32505;-69
2021/09/22 12:00:21;;;;;;;2.20;1.98;;;;;;;;;;4753110;29;36956;-67
2021/09/22 12:02:48;;;;;;;4.53;2.08;;;;;;;;;;4763396;29;32750;-66
2021/09/22 12:05:16;;;;;;;5.43;3.10;;;;;;;;;;4751991;29;32579;-68
2021/09/22 12:07:43;;;;;;;5.43;2.30;;;;;;;;;;4763372;29;32528;-68
2021/09/22 12:10:11;;;;;;;4.32;2.85;;;;;;;;;;4767092;29;34123;-66
2021/09/22 12:12:38;;;;;;;4.13;2.22;;;;;;;;;;4798569;29;32824;-66
2021/09/22 12:15:09;;;;;;;3.53;2.35;;;;;;;;;;4581269;29;5002588;-66
2021/09/22 12:17:38;;;;;;;5.78;2.15;;;;;;;;;;4799243;29;32404;-66
2021/09/22 12:20:10;;;;;;;4.07;2.22;;;;;;;;;;4788060;29;32596;-69
2021/09/22 12:22:39;;;;;;;4.50;2.35;;;;;;;;;;4798403;29;34964;-67
2021/09/22 12:25:08;;;;;;;4.40;3.47;;;;;;;;;;4789974;29;32616;-66
2021/09/22 12:27:35;;;;;;;7.22;3.92;;;;;;;;;;4799025;29;32434;-66
2021/09/22 12:30:08;;;;;;;5.85;2.67;;;;;;;;;;4780236;29;32617;-67
2021/09/22 12:32:58;;;;;;;7.80;2.75;;;;;;;;;;4798050;29;34183;-66
2021/09/22 12:35:29;;;;;;;5.35;2.50;;;;;;;;;;4798080;29;32518;-67
2021/09/22 12:37:57;;;;;;;4.45;3.38;;;;;;;;;;4798889;29;32653;-69
2021/09/22 12:40:28;;;;;;;6.05;3.38;;;;;;;;;;4789524;29;32511;-67
2021/09/22 12:42:56;;;;;;;4.30;3.08;;;;;;;;;;4780436;29;32874;-68
2021/09/22 12:45:26;;;;;;;5.10;2.17;;;;;;;;;;4780260;29;34809;-66
2021/09/22 12:47:59;;;;;;;3.97;2.30;;;;;;;;;;4751314;29;32569;-67
2021/09/22 12:50:32;;;;;;;5.05;2.45;;;;;;;;;;4798652;29;32588;-66
2021/09/22 12:53:11;;;;;;;4.85;2.97;;;;;;;;;;4798770;29;32324;-66
2021/09/22 12:55:40;;;;;;;8.52;3.40;;;;;;;;;;4778211;29;36327;-68
2021/09/22 12:58:07;;;;;;;3.67;2.47;;;;;;;;;;4799632;29;32668;-66
2021/09/22 13:00:42;;;;;;;6.10;3.25;;;;;;;;;;4795703;29;32321;-66
2021/09/22 13:03:18;;;;;;;4.57;2.47;;;;;;;;;;4799445;29;32605;-68
2021/09/22 13:05:47;;;;;;;5.00;2.30;;;;;;;;;;4796936;29;32700;-67
2021/09/22 13:08:16;;;;;;;3.75;2.20;;;;;;;;;;4786822;29;35661;-68
2021/09/22 13:11:07;;;;;;;5.43;2.22;;;;;;;;;;4797387;29;32491;-66
2021/09/22 13:13:41;;;;;;;4.45;2.55;;;;;;;;;;4797696;29;32711;-66
2021/09/22 13:16:32;;;;;;;7.18;2.67;;;;;;;;;;4794686;29;32383;-66
2021/09/22 13:19:04;;;;;;;4.55;2.53;;;;;;;;;;4787781;29;34424;-66
2021/09/22 13:21:31;;;;;;;4.25;2.90;;;;;;;;;;4788889;29;32884;-65
2021/09/22 13:24:00;;;;;;;7.97;3.10;;;;;;;;;;4788951;29;34218;-67
2021/09/22 13:26:28;;;;;;;4.53;2.40;;;;;;;;;;4789357;29;32646;-66
2021/09/22 13:29:01;;;;;;;5.03;2.05;;;;;;;;;;4789288;29;32793;-67
2021/09/22 13:31:30;;;;;;;5.47;2.38;;;;;;;;;;4777278;29;33922;-68
2021/09/22 13:33:58;;;;;;;5.28;3.30;;;;;;;;;;4797822;29;32618;-66
2021/09/22 13:36:25;;;;;;;7.07;2.67;;;;;;;;;;4793991;29;32422;-66
2021/09/22 13:38:52;;;;;;;4.13;2.30;;;;;;;;;;4797905;29;32755;-67
2021/09/22 13:41:19;;;;;;;;;;;;;;;;;;4799414;29;34698;-66
2021/09/22 13:43:46;;;;;;;3.13;1.98;;;;;;;;;;4798304;29;32643;-68
2021/09/22 13:46:13;;;;;;;5.15;2.20;;;;;;;;;;4776975;29;33194;-66
2021/09/22 13:48:41;;;;;;;3.95;3.30;;;;;;;;;;4798509;29;33487;-66
2021/09/22 13:51:07;;;;;;;3.58;2.38;;;;;;;;;;4797741;29;32764;-67
2021/09/22 13:53:34;;;;;;;4.18;2.95;;;;;;;;;;4787552;29;35244;-65
2021/09/22 13:56:01;;;;;;;4.80;2.55;;;;;;;;;;4776640;29;32587;-65
2021/09/22 13:58:28;;;;;;;4.10;2.40;;;;;;;;;;4799346;29;32436;-67
2021/09/22 14:00:58;;;;;;;3.15;2.40;;;;;;;;;;4834309;29;33492;-67
2021/09/22 14:03:25;;;;;;;4.78;2.30;;;;;;;;;;4830579;29;34646;-69
2021/09/22 14:05:53;;;;;;;3.80;2.80;;;;;;;;;;4833788;29;32738;-67
2021/09/22 14:08:21;;;;;;;4.15;2.40;;;;;;;;;;4834887;29;32622;-68
2021/09/22 14:10:47;;;;;;;7.20;2.00;;;;;;;;;;4835073;29;32704;-67
2021/09/22 14:13:14;;;;;;;3.50;2.20;;;;;;;;;;4832410;29;32342;-69
2021/09/22 14:15:42;;;;;;;;;;;;;;;;;;4832179;29;34074;-67
2021/09/22 14:18:10;;;;;;;3.35;1.90;;;;;;;;;;4833802;29;32490;-68
2021/09/22 14:20:39;;;;;;;2.72;2.20;;;;;;;;;;4833428;29;32550;-67
2021/09/22 14:23:09;;;;;;;5.07;2.30;;;;;;;;;;4822342;29;34273;-71
2021/09/22 14:25:38;;;;;;;3.83;2.00;;;;;;;;;;4801963;29;35707;-69
2021/09/22 14:28:05;;;;;;;5.03;2.45;;;;;;;;;;4826447;29;32776;-65
2021/09/22 14:30:32;;;;;;;5.88;2.00;;;;;;;;;;4800068;29;33681;-67
2021/09/22 14:32:59;;;;;;;5.18;3.15;;;;;;;;;;4786370;29;33775;-68
2021/09/22 14:35:26;;;;;;;6.18;1.95;;;;;;;;;;4796635;29;32366;-67
2021/09/22 14:37:53;;;;;;;3.72;2.10;;;;;;;;;;4801648;29;35129;-68
2021/09/22 14:40:21;;;;;;;3.97;2.05;;;;;;;;;;4832650;29;32602;-69
2021/09/22 14:42:50;;;;;;;3.35;3.05;;;;;;;;;;4833778;29;32414;-67
2021/09/22 14:45:20;;;;;;;4.78;2.00;;;;;;;;;;4837390;29;32665;-68
2021/09/22 14:47:48;;;;;;;5.05;1.95;;;;;;;;;;4838504;29;34922;-69
2021/09/22 14:50:17;;;;;;;4.00;2.00;;;;;;;;;;4841590;29;32406;-67
2021/09/22 14:52:44;;;;;;;6.07;2.08;;;;;;;;;;4838315;29;32623;-68
2021/09/22 14:55:11;;;;;;;;;;;;;;;;;;4838111;29;32746;-66